Aviation Digital Data Service (ADDS)

Output produced by METARs form (1430 UTC 19 April 2019)
found at http://www.aviationweather.gov/metar/data/
 
METAR text: UKKK 191400Z 06006MPS CAVOK 13/M02 Q1027 R08/290156 TEMPO 05010G15MPS 2100 -SHRA SCT015CB
Conditions at: UKKK (KIEV/ZHYLIANY , UA) observed 1400 UTC 19 April 2019
Temperature: 13.0°C (55°F)
Dewpoint: -2.0°C (28°F) [RH = 35%]
Pressure (altimeter): 30.32 inches Hg (1027.0 mb)
Winds: from the ENE (60 degrees) at 14 MPH (12 knots; 6.2 m/s)
Visibility: 6 or more miles (10+ km)
Ceiling: ceiling and visibility are OK
Clouds: unknown
Weather: no significant weather observed at this time

METAR text: UKKK 191330Z 32002MPS 9999 SCT030CB BKN049 11/M01 Q1027 R08/290156 TEMPO 05010G15MPS 2100 -SHRA SCT015CB
Conditions at: UKKK (KIEV/ZHYLIANY , UA) observed 1330 UTC 19 April 2019
Temperature: 11.0°C (52°F)
Dewpoint: -1.0°C (30°F) [RH = 43%]
Pressure (altimeter): 30.32 inches Hg (1027.0 mb)
Winds: from the NW (320 degrees) at 5 MPH (4 knots; 2.1 m/s)
Visibility: 6 or more miles (10+ km)
Ceiling: 4900 feet AGL
Clouds: scattered clouds at 3000 feet AGL
broken clouds at 4900 feet AGL
Weather: no significant weather observed at this time

METAR text: UKKK 191300Z 08006MPS CAVOK 14/01 Q1027 R08/290156 NOSIG
Conditions at: UKKK (KIEV/ZHYLIANY , UA) observed 1300 UTC 19 April 2019
Temperature: 14.0°C (57°F)
Dewpoint: 1.0°C (34°F) [RH = 41%]
Pressure (altimeter): 30.32 inches Hg (1027.0 mb)
Winds: from the E (80 degrees) at 14 MPH (12 knots; 6.2 m/s)
Visibility: 6 or more miles (10+ km)
Ceiling: ceiling and visibility are OK
Clouds: unknown
Weather: no significant weather observed at this time

METAR text: UKKK 191230Z 09006MPS CAVOK 12/00 Q1027 R08/290156 NOSIG
Conditions at: UKKK (KIEV/ZHYLIANY , UA) observed 1230 UTC 19 April 2019
Temperature: 12.0°C (54°F)
Dewpoint: 0.0°C (32°F) [RH = 44%]
Pressure (altimeter): 30.32 inches Hg (1027.0 mb)
Winds: from the E (90 degrees) at 14 MPH (12 knots; 6.2 m/s)
Visibility: 6 or more miles (10+ km)
Ceiling: ceiling and visibility are OK
Clouds: unknown
Weather: no significant weather observed at this time

METAR text: UKKK 191200Z 06005MPS CAVOK 13/01 Q1027 R08/290156 NOSIG
Conditions at: UKKK (KIEV/ZHYLIANY , UA) observed 1200 UTC 19 April 2019
Temperature: 13.0°C (55°F)
Dewpoint: 1.0°C (34°F) [RH = 44%]
Pressure (altimeter): 30.32 inches Hg (1027.0 mb)
Winds: from the ENE (60 degrees) at 12 MPH (10 knots; 5.1 m/s)
Visibility: 6 or more miles (10+ km)
Ceiling: ceiling and visibility are OK
Clouds: unknown
Weather: no significant weather observed at this time

METAR text: UKKK 191130Z 08002MPS 020V130 CAVOK 12/03 Q1027 R08/290254 NOSIG
Conditions at: UKKK (KIEV/ZHYLIANY , UA) observed 1130 UTC 19 April 2019
Temperature: 12.0°C (54°F)
Dewpoint: 3.0°C (37°F) [RH = 54%]
Pressure (altimeter): 30.32 inches Hg (1027.0 mb)
Winds: from the E (80 degrees) at 5 MPH (4 knots; 2.1 m/s)
Visibility: 6 or more miles (10+ km)
Ceiling: ceiling and visibility are OK
Clouds: unknown
Weather: no significant weather observed at this time

METAR text: UKKK 191100Z VRB01MPS 9999 SCT035CB BKN046 10/02 Q1027 R08/290254 NOSIG
Conditions at: UKKK (KIEV/ZHYLIANY , UA) observed 1100 UTC 19 April 2019
Temperature: 10.0°C (50°F)
Dewpoint: 2.0°C (36°F) [RH = 57%]
Pressure (altimeter): 30.32 inches Hg (1027.0 mb)
Winds: variable direction winds at 2 MPH (2 knots; 1.0 m/s)
Visibility: 6 or more miles (10+ km)
Ceiling: 4600 feet AGL
Clouds: scattered clouds at 3500 feet AGL
broken clouds at 4600 feet AGL
Weather: no significant weather observed at this time

METAR text: UKKK 191036Z 09008G14MPS 8000 -SHRA SCT028CB BKN046 09/02 Q1027 R08/290058 NOSIG
Conditions at: UKKK (KIEV/ZHYLIANY , UA) observed 1036 UTC 19 April 2019
Temperature: 9.0°C (48°F)
Dewpoint: 2.0°C (36°F) [RH = 61%]
Pressure (altimeter): 30.32 inches Hg (1027.0 mb)
Winds: from the E (90 degrees) at 18 MPH (16 knots; 8.2 m/s)
gusting to 31 MPH (27 knots; 13.9 m/s)
Visibility: 5 miles ( 8 km)
Ceiling: 4600 feet AGL
Clouds: scattered clouds at 2800 feet AGL
broken clouds at 4600 feet AGL
Weather: -SHRA  (light rain showers)

METAR text: UKKK 191030Z 08006MPS 9999 -SHRA SCT028CB BKN046 10/02 Q1027 R08/290058 NOSIG
Conditions at: UKKK (KIEV/ZHYLIANY , UA) observed 1030 UTC 19 April 2019
Temperature: 10.0°C (50°F)
Dewpoint: 2.0°C (36°F) [RH = 57%]
Pressure (altimeter): 30.32 inches Hg (1027.0 mb)
Winds: from the E (80 degrees) at 14 MPH (12 knots; 6.2 m/s)
Visibility: 6 or more miles (10+ km)
Ceiling: 4600 feet AGL
Clouds: scattered clouds at 2800 feet AGL
broken clouds at 4600 feet AGL
Weather: -SHRA  (light rain showers)

METAR text: UKKK 191000Z 09003MPS 010V120 9999 SCT034CB 11/03 Q1027 R08/290058 NOSIG
Conditions at: UKKK (KIEV/ZHYLIANY , UA) observed 1000 UTC 19 April 2019
Temperature: 11.0°C (52°F)
Dewpoint: 3.0°C (37°F) [RH = 58%]
Pressure (altimeter): 30.32 inches Hg (1027.0 mb)
Winds: from the E (90 degrees) at 7 MPH (6 knots; 3.1 m/s)
Visibility: 6 or more miles (10+ km)
Ceiling: at least 12,000 feet AGL
Clouds: scattered clouds at 3400 feet AGL
Weather: no significant weather observed at this time

METAR text: UKKK 190930Z 05005MPS 9999 FEW036CB 12/01 Q1027 R08/70D NOSIG
Conditions at: UKKK (KIEV/ZHYLIANY , UA) observed 0930 UTC 19 April 2019
Temperature: 12.0°C (54°F)
Dewpoint: 1.0°C (34°F) [RH = 47%]
Pressure (altimeter): 30.32 inches Hg (1027.0 mb)
Winds: from the NE (50 degrees) at 12 MPH (10 knots; 5.1 m/s)
Visibility: 6 or more miles (10+ km)
Ceiling: at least 12,000 feet AGL
Clouds: few clouds at 3600 feet AGL
Weather: no significant weather observed at this time

METAR text: UKKK 190900Z 03004MPS 360V060 9999 BKN047 12/01 Q1027 R08/CLRD70 NOSIG
Conditions at: UKKK (KIEV/ZHYLIANY , UA) observed 0900 UTC 19 April 2019
Temperature: 12.0°C (54°F)
Dewpoint: 1.0°C (34°F) [RH = 47%]
Pressure (altimeter): 30.32 inches Hg (1027.0 mb)
Winds: from the NNE (30 degrees) at 9 MPH (8 knots; 4.1 m/s)
Visibility: 6 or more miles (10+ km)
Ceiling: 4700 feet AGL
Clouds: broken clouds at 4700 feet AGL
Weather: no significant weather observed at this time

METAR text: UKKK 190830Z 05003MPS 360V090 9999 BKN045 11/01 Q1027 R08/70D NOSIG
Conditions at: UKKK (KIEV/ZHYLIANY , UA) observed 0830 UTC 19 April 2019
Temperature: 11.0°C (52°F)
Dewpoint: 1.0°C (34°F) [RH = 50%]
Pressure (altimeter): 30.32 inches Hg (1027.0 mb)
Winds: from the NE (50 degrees) at 7 MPH (6 knots; 3.1 m/s)
Visibility: 6 or more miles (10+ km)
Ceiling: 4500 feet AGL
Clouds: broken clouds at 4500 feet AGL
Weather: no significant weather observed at this time

METAR text: UKKK 190800Z 05005MPS 020V100 9999 SCT040 12/02 Q1027 R08/70D NOSIG
Conditions at: UKKK (KIEV/ZHYLIANY , UA) observed 0800 UTC 19 April 2019
Temperature: 12.0°C (54°F)
Dewpoint: 2.0°C (36°F) [RH = 50%]
Pressure (altimeter): 30.32 inches Hg (1027.0 mb)
Winds: from the NE (50 degrees) at 12 MPH (10 knots; 5.1 m/s)
Visibility: 6 or more miles (10+ km)
Ceiling: at least 12,000 feet AGL
Clouds: scattered clouds at 4000 feet AGL
Weather: no significant weather observed at this time

METAR text: UKKK 190730Z 07005MPS CAVOK 11/03 Q1026 R08/CLRD70 NOSIG
Conditions at: UKKK (KIEV/ZHYLIANY , UA) observed 0730 UTC 19 April 2019
Temperature: 11.0°C (52°F)
Dewpoint: 3.0°C (37°F) [RH = 58%]
Pressure (altimeter): 30.30 inches Hg (1026.0 mb)
Winds: from the ENE (70 degrees) at 12 MPH (10 knots; 5.1 m/s)
Visibility: 6 or more miles (10+ km)
Ceiling: ceiling and visibility are OK
Clouds: unknown
Weather: no significant weather observed at this time

METAR text: UKKK 190700Z 08005MPS CAVOK 11/03 Q1026 R08/70D NOSIG
Conditions at: UKKK (KIEV/ZHYLIANY , UA) observed 0700 UTC 19 April 2019
Temperature: 11.0°C (52°F)
Dewpoint: 3.0°C (37°F) [RH = 58%]
Pressure (altimeter): 30.30 inches Hg (1026.0 mb)
Winds: from the E (80 degrees) at 12 MPH (10 knots; 5.1 m/s)
Visibility: 6 or more miles (10+ km)
Ceiling: ceiling and visibility are OK
Clouds: unknown
Weather: no significant weather observed at this time

METAR text: UKKK 190630Z 05005MPS 020V080 CAVOK 10/03 Q1026 R08/CLRD70 NOSIG
Conditions at: UKKK (KIEV/ZHYLIANY , UA) observed 0630 UTC 19 April 2019
Temperature: 10.0°C (50°F)
Dewpoint: 3.0°C (37°F) [RH = 62%]
Pressure (altimeter): 30.30 inches Hg (1026.0 mb)
Winds: from the NE (50 degrees) at 12 MPH (10 knots; 5.1 m/s)
Visibility: 6 or more miles (10+ km)
Ceiling: ceiling and visibility are OK
Clouds: unknown
Weather: no significant weather observed at this time

METAR text: UKKK 190600Z 05005MPS CAVOK 09/03 Q1026 R08/70D NOSIG
Conditions at: UKKK (KIEV/ZHYLIANY , UA) observed 0600 UTC 19 April 2019
Temperature: 9.0°C (48°F)
Dewpoint: 3.0°C (37°F) [RH = 66%]
Pressure (altimeter): 30.30 inches Hg (1026.0 mb)
Winds: from the NE (50 degrees) at 12 MPH (10 knots; 5.1 m/s)
Visibility: 6 or more miles (10+ km)
Ceiling: ceiling and visibility are OK
Clouds: unknown
Weather: no significant weather observed at this time

METAR text: UKKK 190530Z 01006MPS CAVOK 09/03 Q1025 R08/70D NOSIG
Conditions at: UKKK (KIEV/ZHYLIANY , UA) observed 0530 UTC 19 April 2019
Temperature: 9.0°C (48°F)
Dewpoint: 3.0°C (37°F) [RH = 66%]
Pressure (altimeter): 30.27 inches Hg (1025.0 mb)
Winds: from the N (10 degrees) at 14 MPH (12 knots; 6.2 m/s)
Visibility: 6 or more miles (10+ km)
Ceiling: ceiling and visibility are OK
Clouds: unknown
Weather: no significant weather observed at this time

METAR text: UKKK 190500Z 03004MPS CAVOK 10/03 Q1025 R08/70D NOSIG
Conditions at: UKKK (KIEV/ZHYLIANY , UA) observed 0500 UTC 19 April 2019
Temperature: 10.0°C (50°F)
Dewpoint: 3.0°C (37°F) [RH = 62%]
Pressure (altimeter): 30.27 inches Hg (1025.0 mb)
Winds: from the NNE (30 degrees) at 9 MPH (8 knots; 4.1 m/s)
Visibility: 6 or more miles (10+ km)
Ceiling: ceiling and visibility are OK
Clouds: unknown
Weather: no significant weather observed at this time

METAR text: UKKK 190430Z 04005MPS CAVOK 08/02 Q1025 R08/CLRD70 NOSIG
Conditions at: UKKK (KIEV/ZHYLIANY , UA) observed 0430 UTC 19 April 2019
Temperature: 8.0°C (46°F)
Dewpoint: 2.0°C (36°F) [RH = 66%]
Pressure (altimeter): 30.27 inches Hg (1025.0 mb)
Winds: from the NE (40 degrees) at 12 MPH (10 knots; 5.1 m/s)
Visibility: 6 or more miles (10+ km)
Ceiling: ceiling and visibility are OK
Clouds: unknown
Weather: no significant weather observed at this time

METAR text: UKKK 190400Z 02003MPS 360V060 CAVOK 05/03 Q1025 R08/70D NOSIG
Conditions at: UKKK (KIEV/ZHYLIANY , UA) observed 0400 UTC 19 April 2019
Temperature: 5.0°C (41°F)
Dewpoint: 3.0°C (37°F) [RH = 87%]
Pressure (altimeter): 30.27 inches Hg (1025.0 mb)
Winds: from the NNE (20 degrees) at 7 MPH (6 knots; 3.1 m/s)
Visibility: 6 or more miles (10+ km)
Ceiling: ceiling and visibility are OK
Clouds: unknown
Weather: no significant weather observed at this time

METAR text: UKKK 190330Z VRB01MPS CAVOK 04/01 Q1024 R08/70D NOSIG
Conditions at: UKKK (KIEV/ZHYLIANY , UA) observed 0330 UTC 19 April 2019
Temperature: 4.0°C (39°F)
Dewpoint: 1.0°C (34°F) [RH = 81%]
Pressure (altimeter): 30.24 inches Hg (1024.0 mb)
Winds: variable direction winds at 2 MPH (2 knots; 1.0 m/s)
Visibility: 6 or more miles (10+ km)
Ceiling: ceiling and visibility are OK
Clouds: unknown
Weather: no significant weather observed at this time

METAR text: UKKK 190300Z 00000MPS CAVOK 05/02 Q1023 R08/70D NOSIG
Conditions at: UKKK (KIEV/ZHYLIANY , UA) observed 0300 UTC 19 April 2019
Temperature: 5.0°C (41°F)
Dewpoint: 2.0°C (36°F) [RH = 81%]
Pressure (altimeter): 30.21 inches Hg (1023.0 mb)
Winds: calm
Visibility: 6 or more miles (10+ km)
Ceiling: ceiling and visibility are OK
Clouds: unknown
Weather: no significant weather observed at this time

METAR text: UKKK 190230Z 15003MPS 110V180 CAVOK 07/02 Q1023 R08/70D NOSIG
Conditions at: UKKK (KIEV/ZHYLIANY , UA) observed 0230 UTC 19 April 2019
Temperature: 7.0°C (45°F)
Dewpoint: 2.0°C (36°F) [RH = 70%]
Pressure (altimeter): 30.21 inches Hg (1023.0 mb)
Winds: from the SSE (150 degrees) at 7 MPH (6 knots; 3.1 m/s)
Visibility: 6 or more miles (10+ km)
Ceiling: ceiling and visibility are OK
Clouds: unknown
Weather: no significant weather observed at this time

METAR text: UKKK 190200Z 14002MPS 110V180 CAVOK 07/03 Q1024 R08/70D NOSIG
Conditions at: UKKK (KIEV/ZHYLIANY , UA) observed 0200 UTC 19 April 2019
Temperature: 7.0°C (45°F)
Dewpoint: 3.0°C (37°F) [RH = 76%]
Pressure (altimeter): 30.24 inches Hg (1024.0 mb)
Winds: from the SE (140 degrees) at 5 MPH (4 knots; 2.1 m/s)
Visibility: 6 or more miles (10+ km)
Ceiling: ceiling and visibility are OK
Clouds: unknown
Weather: no significant weather observed at this time

METAR text: UKKK 190130Z 14003MPS 110V180 CAVOK 08/02 Q1024 R08/70D NOSIG
Conditions at: UKKK (KIEV/ZHYLIANY , UA) observed 0130 UTC 19 April 2019
Temperature: 8.0°C (46°F)
Dewpoint: 2.0°C (36°F) [RH = 66%]
Pressure (altimeter): 30.24 inches Hg (1024.0 mb)
Winds: from the SE (140 degrees) at 7 MPH (6 knots; 3.1 m/s)
Visibility: 6 or more miles (10+ km)
Ceiling: ceiling and visibility are OK
Clouds: unknown
Weather: no significant weather observed at this time

METAR text: UKKK 190100Z 15003MPS 110V190 CAVOK 08/02 Q1023 R08/70D NOSIG
Conditions at: UKKK (KIEV/ZHYLIANY , UA) observed 0100 UTC 19 April 2019
Temperature: 8.0°C (46°F)
Dewpoint: 2.0°C (36°F) [RH = 66%]
Pressure (altimeter): 30.21 inches Hg (1023.0 mb)
Winds: from the SSE (150 degrees) at 7 MPH (6 knots; 3.1 m/s)
Visibility: 6 or more miles (10+ km)
Ceiling: ceiling and visibility are OK
Clouds: unknown
Weather: no significant weather observed at this time

METAR text: UKKK 190030Z 10002MPS 050V160 CAVOK 06/03 Q1024 R08/70D NOSIG
Conditions at: UKKK (KIEV/ZHYLIANY , UA) observed 0030 UTC 19 April 2019
Temperature: 6.0°C (43°F)
Dewpoint: 3.0°C (37°F) [RH = 81%]
Pressure (altimeter): 30.24 inches Hg (1024.0 mb)
Winds: from the E (100 degrees) at 5 MPH (4 knots; 2.1 m/s)
Visibility: 6 or more miles (10+ km)
Ceiling: ceiling and visibility are OK
Clouds: unknown
Weather: no significant weather observed at this time

METAR text: UKKK 190000Z VRB01MPS CAVOK 04/01 Q1023 R08/70D NOSIG
Conditions at: UKKK (KIEV/ZHYLIANY , UA) observed 0000 UTC 19 April 2019
Temperature: 4.0°C (39°F)
Dewpoint: 1.0°C (34°F) [RH = 81%]
Pressure (altimeter): 30.21 inches Hg (1023.0 mb)
Winds: variable direction winds at 2 MPH (2 knots; 1.0 m/s)
Visibility: 6 or more miles (10+ km)
Ceiling: ceiling and visibility are OK
Clouds: unknown
Weather: no significant weather observed at this time

METAR text: UKKK 182330Z 12002MPS CAVOK 06/01 Q1023 R08/70D NOSIG
Conditions at: UKKK (KIEV/ZHYLIANY , UA) observed 2330 UTC 18 April 2019
Temperature: 6.0°C (43°F)
Dewpoint: 1.0°C (34°F) [RH = 70%]
Pressure (altimeter): 30.21 inches Hg (1023.0 mb)
Winds: from the ESE (120 degrees) at 5 MPH (4 knots; 2.1 m/s)
Visibility: 6 or more miles (10+ km)
Ceiling: ceiling and visibility are OK
Clouds: unknown
Weather: no significant weather observed at this time

METAR text: UKKK 182300Z 12003MPS 090V180 CAVOK 04/01 Q1023 R26/70D NOSIG
Conditions at: UKKK (KIEV/ZHYLIANY , UA) observed 2300 UTC 18 April 2019
Temperature: 4.0°C (39°F)
Dewpoint: 1.0°C (34°F) [RH = 81%]
Pressure (altimeter): 30.21 inches Hg (1023.0 mb)
Winds: from the ESE (120 degrees) at 7 MPH (6 knots; 3.1 m/s)
Visibility: 6 or more miles (10+ km)
Ceiling: ceiling and visibility are OK
Clouds: unknown
Weather: no significant weather observed at this time

METAR text: UKKK 182230Z VRB01MPS CAVOK 05/01 Q1023 R26/70D NOSIG
Conditions at: UKKK (KIEV/ZHYLIANY , UA) observed 2230 UTC 18 April 2019
Temperature: 5.0°C (41°F)
Dewpoint: 1.0°C (34°F) [RH = 75%]
Pressure (altimeter): 30.21 inches Hg (1023.0 mb)
Winds: variable direction winds at 2 MPH (2 knots; 1.0 m/s)
Visibility: 6 or more miles (10+ km)
Ceiling: ceiling and visibility are OK
Clouds: unknown
Weather: no significant weather observed at this time

METAR text: UKKK 182200Z VRB01MPS CAVOK 06/01 Q1023 R26/70D NOSIG
Conditions at: UKKK (KIEV/ZHYLIANY , UA) observed 2200 UTC 18 April 2019
Temperature: 6.0°C (43°F)
Dewpoint: 1.0°C (34°F) [RH = 70%]
Pressure (altimeter): 30.21 inches Hg (1023.0 mb)
Winds: variable direction winds at 2 MPH (2 knots; 1.0 m/s)
Visibility: 6 or more miles (10+ km)
Ceiling: ceiling and visibility are OK
Clouds: unknown
Weather: no significant weather observed at this time

METAR text: UKKK 182130Z 26002MPS 9000 NSC 06/00 Q1023 R26/70D NOSIG
Conditions at: UKKK (KIEV/ZHYLIANY , UA) observed 2130 UTC 18 April 2019
Temperature: 6.0°C (43°F)
Dewpoint: 0.0°C (32°F) [RH = 65%]
Pressure (altimeter): 30.21 inches Hg (1023.0 mb)
Winds: from the W (260 degrees) at 5 MPH (4 knots; 2.1 m/s)
Visibility: 6 miles ( 9 km)
Ceiling: at least 12,000 feet AGL
Clouds: sky clear below 12,000 feet AGL
Weather: no significant weather observed at this time

METAR text: UKKK 182100Z 15001MPS CAVOK 08/01 Q1024 R26/70D NOSIG
Conditions at: UKKK (KIEV/ZHYLIANY , UA) observed 2100 UTC 18 April 2019
Temperature: 8.0°C (46°F)
Dewpoint: 1.0°C (34°F) [RH = 61%]
Pressure (altimeter): 30.24 inches Hg (1024.0 mb)
Winds: from the SSE (150 degrees) at 2 MPH (2 knots; 1.0 m/s)
Visibility: 6 or more miles (10+ km)
Ceiling: ceiling and visibility are OK
Clouds: unknown
Weather: no significant weather observed at this time

METAR text: UKKK 182030Z 24002MPS 210V270 CAVOK 11/01 Q1024 R26/70D NOSIG
Conditions at: UKKK (KIEV/ZHYLIANY , UA) observed 2030 UTC 18 April 2019
Temperature: 11.0°C (52°F)
Dewpoint: 1.0°C (34°F) [RH = 50%]
Pressure (altimeter): 30.24 inches Hg (1024.0 mb)
Winds: from the WSW (240 degrees) at 5 MPH (4 knots; 2.1 m/s)
Visibility: 6 or more miles (10+ km)
Ceiling: ceiling and visibility are OK
Clouds: unknown
Weather: no significant weather observed at this time

METAR text: UKKK 182000Z 03002MPS 300V110 9999 SCT036 09/02 Q1024 R08/70D NOSIG
Conditions at: UKKK (KIEV/ZHYLIANY , UA) observed 2000 UTC 18 April 2019
Temperature: 9.0°C (48°F)
Dewpoint: 2.0°C (36°F) [RH = 61%]
Pressure (altimeter): 30.24 inches Hg (1024.0 mb)
Winds: from the NNE (30 degrees) at 5 MPH (4 knots; 2.1 m/s)
Visibility: 6 or more miles (10+ km)
Ceiling: at least 12,000 feet AGL
Clouds: scattered clouds at 3600 feet AGL
Weather: no significant weather observed at this time

METAR text: UKKK 181930Z 16002MPS 9000 NSC 08/01 Q1024 R26/70D NOSIG
Conditions at: UKKK (KIEV/ZHYLIANY , UA) observed 1930 UTC 18 April 2019
Temperature: 8.0°C (46°F)
Dewpoint: 1.0°C (34°F) [RH = 61%]
Pressure (altimeter): 30.24 inches Hg (1024.0 mb)
Winds: from the SSE (160 degrees) at 5 MPH (4 knots; 2.1 m/s)
Visibility: 6 miles ( 9 km)
Ceiling: at least 12,000 feet AGL
Clouds: sky clear below 12,000 feet AGL
Weather: no significant weather observed at this time

METAR text: UKKK 181900Z VRB01MPS 7000 NSC 07/02 Q1024 R26/70D NOSIG
Conditions at: UKKK (KIEV/ZHYLIANY , UA) observed 1900 UTC 18 April 2019
Temperature: 7.0°C (45°F)
Dewpoint: 2.0°C (36°F) [RH = 70%]
Pressure (altimeter): 30.24 inches Hg (1024.0 mb)
Winds: variable direction winds at 2 MPH (2 knots; 1.0 m/s)
Visibility: 4 miles ( 7 km)
Ceiling: at least 12,000 feet AGL
Clouds: sky clear below 12,000 feet AGL
Weather: no significant weather observed at this time

METAR text: UKKK 181830Z 16001MPS 8000 NSC 08/02 Q1024 R26/70D NOSIG
Conditions at: UKKK (KIEV/ZHYLIANY , UA) observed 1830 UTC 18 April 2019
Temperature: 8.0°C (46°F)
Dewpoint: 2.0°C (36°F) [RH = 66%]
Pressure (altimeter): 30.24 inches Hg (1024.0 mb)
Winds: from the SSE (160 degrees) at 2 MPH (2 knots; 1.0 m/s)
Visibility: 5 miles ( 8 km)
Ceiling: at least 12,000 feet AGL
Clouds: sky clear below 12,000 feet AGL
Weather: no significant weather observed at this time

METAR text: UKKK 181800Z 00000MPS 9999 NSC 08/02 Q1025 R08/70D NOSIG
Conditions at: UKKK (KIEV/ZHYLIANY , UA) observed 1800 UTC 18 April 2019
Temperature: 8.0°C (46°F)
Dewpoint: 2.0°C (36°F) [RH = 66%]
Pressure (altimeter): 30.27 inches Hg (1025.0 mb)
Winds: calm
Visibility: 6 or more miles (10+ km)
Ceiling: at least 12,000 feet AGL
Clouds: sky clear below 12,000 feet AGL
Weather: no significant weather observed at this time

METAR text: UKKK 181730Z 11001MPS CAVOK 11/M01 Q1025 R08/CLRD70 NOSIG
Conditions at: UKKK (KIEV/ZHYLIANY , UA) observed 1730 UTC 18 April 2019
Temperature: 11.0°C (52°F)
Dewpoint: -1.0°C (30°F) [RH = 43%]
Pressure (altimeter): 30.27 inches Hg (1025.0 mb)
Winds: from the ESE (110 degrees) at 2 MPH (2 knots; 1.0 m/s)
Visibility: 6 or more miles (10+ km)
Ceiling: ceiling and visibility are OK
Clouds: unknown
Weather: no significant weather observed at this time

METAR text: UKKK 181700Z 10001MPS CAVOK 12/M01 Q1025 R08/70D NOSIG
Conditions at: UKKK (KIEV/ZHYLIANY , UA) observed 1700 UTC 18 April 2019
Temperature: 12.0°C (54°F)
Dewpoint: -1.0°C (30°F) [RH = 40%]
Pressure (altimeter): 30.27 inches Hg (1025.0 mb)
Winds: from the E (100 degrees) at 2 MPH (2 knots; 1.0 m/s)
Visibility: 6 or more miles (10+ km)
Ceiling: ceiling and visibility are OK
Clouds: unknown
Weather: no significant weather observed at this time

METAR text: UKKK 181630Z 03001MPS CAVOK 13/M01 Q1025 R08/70D NOSIG
Conditions at: UKKK (KIEV/ZHYLIANY , UA) observed 1630 UTC 18 April 2019
Temperature: 13.0°C (55°F)
Dewpoint: -1.0°C (30°F) [RH = 38%]
Pressure (altimeter): 30.27 inches Hg (1025.0 mb)
Winds: from the NNE (30 degrees) at 2 MPH (2 knots; 1.0 m/s)
Visibility: 6 or more miles (10+ km)
Ceiling: ceiling and visibility are OK
Clouds: unknown
Weather: no significant weather observed at this time

METAR text: UKKK 181600Z 04003MPS CAVOK 13/M00 Q1025 R08/70D NOSIG
Conditions at: UKKK (KIEV/ZHYLIANY , UA) observed 1600 UTC 18 April 2019
Temperature: 13.0°C (55°F)
Dewpoint: 0.0°C (32°F) [RH = 41%]
Pressure (altimeter): 30.27 inches Hg (1025.0 mb)
Winds: from the NE (40 degrees) at 7 MPH (6 knots; 3.1 m/s)
Visibility: 6 or more miles (10+ km)
Ceiling: ceiling and visibility are OK
Clouds: unknown
Weather: no significant weather observed at this time

METAR text: UKKK 181530Z 04003MPS 020V080 CAVOK 14/M00 Q1025 R08/CLRD70 NOSIG
Conditions at: UKKK (KIEV/ZHYLIANY , UA) observed 1530 UTC 18 April 2019
Temperature: 14.0°C (57°F)
Dewpoint: 0.0°C (32°F) [RH = 38%]
Pressure (altimeter): 30.27 inches Hg (1025.0 mb)
Winds: from the NE (40 degrees) at 7 MPH (6 knots; 3.1 m/s)
Visibility: 6 or more miles (10+ km)
Ceiling: ceiling and visibility are OK
Clouds: unknown
Weather: no significant weather observed at this time

METAR text: UKKK 181500Z 02002MPS 350V060 CAVOK 14/M00 Q1025 R08/70D NOSIG
Conditions at: UKKK (KIEV/ZHYLIANY , UA) observed 1500 UTC 18 April 2019
Temperature: 14.0°C (57°F)
Dewpoint: 0.0°C (32°F) [RH = 38%]
Pressure (altimeter): 30.27 inches Hg (1025.0 mb)
Winds: from the NNE (20 degrees) at 5 MPH (4 knots; 2.1 m/s)
Visibility: 6 or more miles (10+ km)
Ceiling: ceiling and visibility are OK
Clouds: unknown
Weather: no significant weather observed at this time

METAR text: UKKK 181430Z 01003MPS 300V060 CAVOK 15/M00 Q1025 R08/70D NOSIG
Conditions at: UKKK (KIEV/ZHYLIANY , UA) observed 1430 UTC 18 April 2019
Temperature: 15.0°C (59°F)
Dewpoint: 0.0°C (32°F) [RH = 36%]
Pressure (altimeter): 30.27 inches Hg (1025.0 mb)
Winds: from the N (10 degrees) at 7 MPH (6 knots; 3.1 m/s)
Visibility: 6 or more miles (10+ km)
Ceiling: ceiling and visibility are OK
Clouds: unknown
Weather: no significant weather observed at this time

METAR text: UKKK 181400Z 04003MPS 010V080 CAVOK 14/00 Q1026 R08/70D NOSIG
Conditions at: UKKK (KIEV/ZHYLIANY , UA) observed 1400 UTC 18 April 2019
Temperature: 14.0°C (57°F)
Dewpoint: 0.0°C (32°F) [RH = 38%]
Pressure (altimeter): 30.30 inches Hg (1026.0 mb)
Winds: from the NE (40 degrees) at 7 MPH (6 knots; 3.1 m/s)
Visibility: 6 or more miles (10+ km)
Ceiling: ceiling and visibility are OK
Clouds: unknown
Weather: no significant weather observed at this time

METAR text: UKKK 181330Z 07003MPS CAVOK 15/01 Q1026 R08/CLRD70 NOSIG
Conditions at: UKKK (KIEV/ZHYLIANY , UA) observed 1330 UTC 18 April 2019
Temperature: 15.0°C (59°F)
Dewpoint: 1.0°C (34°F) [RH = 39%]
Pressure (altimeter): 30.30 inches Hg (1026.0 mb)
Winds: from the ENE (70 degrees) at 7 MPH (6 knots; 3.1 m/s)
Visibility: 6 or more miles (10+ km)
Ceiling: ceiling and visibility are OK
Clouds: unknown
Weather: no significant weather observed at this time

METAR text: UKKK 181300Z 06004MPS 020V100 CAVOK 14/M00 Q1026 R08/70D NOSIG
Conditions at: UKKK (KIEV/ZHYLIANY , UA) observed 1300 UTC 18 April 2019
Temperature: 14.0°C (57°F)
Dewpoint: 0.0°C (32°F) [RH = 38%]
Pressure (altimeter): 30.30 inches Hg (1026.0 mb)
Winds: from the ENE (60 degrees) at 9 MPH (8 knots; 4.1 m/s)
Visibility: 6 or more miles (10+ km)
Ceiling: ceiling and visibility are OK
Clouds: unknown
Weather: no significant weather observed at this time

METAR text: UKKK 181230Z 36003MPS 320V050 CAVOK 14/M00 Q1027 R08/70D NOSIG
Conditions at: UKKK (KIEV/ZHYLIANY , UA) observed 1230 UTC 18 April 2019
Temperature: 14.0°C (57°F)
Dewpoint: 0.0°C (32°F) [RH = 38%]
Pressure (altimeter): 30.32 inches Hg (1027.0 mb)
Winds: from the N (360 degrees) at 7 MPH (6 knots; 3.1 m/s)
Visibility: 6 or more miles (10+ km)
Ceiling: ceiling and visibility are OK
Clouds: unknown
Weather: no significant weather observed at this time

METAR text: UKKK 181200Z 05003MPS CAVOK 14/00 Q1027 R08/70D NOSIG
Conditions at: UKKK (KIEV/ZHYLIANY , UA) observed 1200 UTC 18 April 2019
Temperature: 14.0°C (57°F)
Dewpoint: 0.0°C (32°F) [RH = 38%]
Pressure (altimeter): 30.32 inches Hg (1027.0 mb)
Winds: from the NE (50 degrees) at 7 MPH (6 knots; 3.1 m/s)
Visibility: 6 or more miles (10+ km)
Ceiling: ceiling and visibility are OK
Clouds: unknown
Weather: no significant weather observed at this time

METAR text: UKKK 181130Z 03003MPS 360V100 CAVOK 14/M00 Q1027 R08/CLRD70 NOSIG
Conditions at: UKKK (KIEV/ZHYLIANY , UA) observed 1130 UTC 18 April 2019
Temperature: 14.0°C (57°F)
Dewpoint: 0.0°C (32°F) [RH = 38%]
Pressure (altimeter): 30.32 inches Hg (1027.0 mb)
Winds: from the NNE (30 degrees) at 7 MPH (6 knots; 3.1 m/s)
Visibility: 6 or more miles (10+ km)
Ceiling: ceiling and visibility are OK
Clouds: unknown
Weather: no significant weather observed at this time

METAR text: UKKK 181100Z 09002MPS CAVOK 13/M00 Q1028 R08/70D NOSIG
Conditions at: UKKK (KIEV/ZHYLIANY , UA) observed 1100 UTC 18 April 2019
Temperature: 13.0°C (55°F)
Dewpoint: 0.0°C (32°F) [RH = 41%]
Pressure (altimeter): 30.35 inches Hg (1028.0 mb)
Winds: from the E (90 degrees) at 5 MPH (4 knots; 2.1 m/s)
Visibility: 6 or more miles (10+ km)
Ceiling: ceiling and visibility are OK
Clouds: unknown
Weather: no significant weather observed at this time

METAR text: UKKK 181030Z 01002MPS CAVOK 14/00 Q1028 R08/70D NOSIG
Conditions at: UKKK (KIEV/ZHYLIANY , UA) observed 1030 UTC 18 April 2019
Temperature: 14.0°C (57°F)
Dewpoint: 0.0°C (32°F) [RH = 38%]
Pressure (altimeter): 30.35 inches Hg (1028.0 mb)
Winds: from the N (10 degrees) at 5 MPH (4 knots; 2.1 m/s)
Visibility: 6 or more miles (10+ km)
Ceiling: ceiling and visibility are OK
Clouds: unknown
Weather: no significant weather observed at this time

METAR text: UKKK 181000Z VRB01MPS CAVOK 13/M00 Q1029 R08/70D NOSIG
Conditions at: UKKK (KIEV/ZHYLIANY , UA) observed 1000 UTC 18 April 2019
Temperature: 13.0°C (55°F)
Dewpoint: 0.0°C (32°F) [RH = 41%]
Pressure (altimeter): 30.38 inches Hg (1029.0 mb)
Winds: variable direction winds at 2 MPH (2 knots; 1.0 m/s)
Visibility: 6 or more miles (10+ km)
Ceiling: ceiling and visibility are OK
Clouds: unknown
Weather: no significant weather observed at this time

METAR text: UKKK 180930Z 05002MPS 330V100 CAVOK 13/M00 Q1029 R08/70D NOSIG
Conditions at: UKKK (KIEV/ZHYLIANY , UA) observed 0930 UTC 18 April 2019
Temperature: 13.0°C (55°F)
Dewpoint: 0.0°C (32°F) [RH = 41%]
Pressure (altimeter): 30.38 inches Hg (1029.0 mb)
Winds: from the NE (50 degrees) at 5 MPH (4 knots; 2.1 m/s)
Visibility: 6 or more miles (10+ km)
Ceiling: ceiling and visibility are OK
Clouds: unknown
Weather: no significant weather observed at this time

METAR text: UKKK 180900Z 03004MPS 320V100 CAVOK 13/00 Q1029 R08/70D NOSIG
Conditions at: UKKK (KIEV/ZHYLIANY , UA) observed 0900 UTC 18 April 2019
Temperature: 13.0°C (55°F)
Dewpoint: 0.0°C (32°F) [RH = 41%]
Pressure (altimeter): 30.38 inches Hg (1029.0 mb)
Winds: from the NNE (30 degrees) at 9 MPH (8 knots; 4.1 m/s)
Visibility: 6 or more miles (10+ km)
Ceiling: ceiling and visibility are OK
Clouds: unknown
Weather: no significant weather observed at this time

METAR text: UKKK 180830Z 04004MPS 350V100 CAVOK 12/M01 Q1029 R08/70D NOSIG
Conditions at: UKKK (KIEV/ZHYLIANY , UA) observed 0830 UTC 18 April 2019
Temperature: 12.0°C (54°F)
Dewpoint: -1.0°C (30°F) [RH = 40%]
Pressure (altimeter): 30.38 inches Hg (1029.0 mb)
Winds: from the NE (40 degrees) at 9 MPH (8 knots; 4.1 m/s)
Visibility: 6 or more miles (10+ km)
Ceiling: ceiling and visibility are OK
Clouds: unknown
Weather: no significant weather observed at this time

METAR text: UKKK 180800Z 08003MPS 050V200 CAVOK 12/M01 Q1029 R08/70D NOSIG
Conditions at: UKKK (KIEV/ZHYLIANY , UA) observed 0800 UTC 18 April 2019
Temperature: 12.0°C (54°F)
Dewpoint: -1.0°C (30°F) [RH = 40%]
Pressure (altimeter): 30.38 inches Hg (1029.0 mb)
Winds: from the E (80 degrees) at 7 MPH (6 knots; 3.1 m/s)
Visibility: 6 or more miles (10+ km)
Ceiling: ceiling and visibility are OK
Clouds: unknown
Weather: no significant weather observed at this time

METAR text: UKKK 180730Z 12002MPS CAVOK 11/M00 Q1029 R08/70D NOSIG
Conditions at: UKKK (KIEV/ZHYLIANY , UA) observed 0730 UTC 18 April 2019
Temperature: 11.0°C (52°F)
Dewpoint: 0.0°C (32°F) [RH = 47%]
Pressure (altimeter): 30.38 inches Hg (1029.0 mb)
Winds: from the ESE (120 degrees) at 5 MPH (4 knots; 2.1 m/s)
Visibility: 6 or more miles (10+ km)
Ceiling: ceiling and visibility are OK
Clouds: unknown
Weather: no significant weather observed at this time

METAR text: UKKK 180700Z 08002MPS 360V150 CAVOK 11/01 Q1029 R08/70D NOSIG
Conditions at: UKKK (KIEV/ZHYLIANY , UA) observed 0700 UTC 18 April 2019
Temperature: 11.0°C (52°F)
Dewpoint: 1.0°C (34°F) [RH = 50%]
Pressure (altimeter): 30.38 inches Hg (1029.0 mb)
Winds: from the E (80 degrees) at 5 MPH (4 knots; 2.1 m/s)
Visibility: 6 or more miles (10+ km)
Ceiling: ceiling and visibility are OK
Clouds: unknown
Weather: no significant weather observed at this time

METAR text: UKKK 180630Z VRB01MPS CAVOK 10/03 Q1029 R08/70D NOSIG
Conditions at: UKKK (KIEV/ZHYLIANY , UA) observed 0630 UTC 18 April 2019
Temperature: 10.0°C (50°F)
Dewpoint: 3.0°C (37°F) [RH = 62%]
Pressure (altimeter): 30.38 inches Hg (1029.0 mb)
Winds: variable direction winds at 2 MPH (2 knots; 1.0 m/s)
Visibility: 6 or more miles (10+ km)
Ceiling: ceiling and visibility are OK
Clouds: unknown
Weather: no significant weather observed at this time

METAR text: UKKK 180600Z VRB01MPS CAVOK 09/03 Q1029 R08/70D NOSIG
Conditions at: UKKK (KIEV/ZHYLIANY , UA) observed 0600 UTC 18 April 2019
Temperature: 9.0°C (48°F)
Dewpoint: 3.0°C (37°F) [RH = 66%]
Pressure (altimeter): 30.38 inches Hg (1029.0 mb)
Winds: variable direction winds at 2 MPH (2 knots; 1.0 m/s)
Visibility: 6 or more miles (10+ km)
Ceiling: ceiling and visibility are OK
Clouds: unknown
Weather: no significant weather observed at this time

METAR text: UKKK 180530Z 06002MPS 030V090 CAVOK 08/02 Q1029 R08/70D NOSIG
Conditions at: UKKK (KIEV/ZHYLIANY , UA) observed 0530 UTC 18 April 2019
Temperature: 8.0°C (46°F)
Dewpoint: 2.0°C (36°F) [RH = 66%]
Pressure (altimeter): 30.38 inches Hg (1029.0 mb)
Winds: from the ENE (60 degrees) at 5 MPH (4 knots; 2.1 m/s)
Visibility: 6 or more miles (10+ km)
Ceiling: ceiling and visibility are OK
Clouds: unknown
Weather: no significant weather observed at this time

METAR text: UKKK 180500Z 08003MPS CAVOK 07/02 Q1029 R08/70D NOSIG
Conditions at: UKKK (KIEV/ZHYLIANY , UA) observed 0500 UTC 18 April 2019
Temperature: 7.0°C (45°F)
Dewpoint: 2.0°C (36°F) [RH = 70%]
Pressure (altimeter): 30.38 inches Hg (1029.0 mb)
Winds: from the E (80 degrees) at 7 MPH (6 knots; 3.1 m/s)
Visibility: 6 or more miles (10+ km)
Ceiling: ceiling and visibility are OK
Clouds: unknown
Weather: no significant weather observed at this time

METAR text: UKKK 180430Z 08002MPS CAVOK 06/03 Q1029 R08/70D NOSIG
Conditions at: UKKK (KIEV/ZHYLIANY , UA) observed 0430 UTC 18 April 2019
Temperature: 6.0°C (43°F)
Dewpoint: 3.0°C (37°F) [RH = 81%]
Pressure (altimeter): 30.38 inches Hg (1029.0 mb)
Winds: from the E (80 degrees) at 5 MPH (4 knots; 2.1 m/s)
Visibility: 6 or more miles (10+ km)
Ceiling: ceiling and visibility are OK
Clouds: unknown
Weather: no significant weather observed at this time

METAR text: UKKK 180400Z 07001MPS CAVOK 04/01 Q1029 R08/70D NOSIG
Conditions at: UKKK (KIEV/ZHYLIANY , UA) observed 0400 UTC 18 April 2019
Temperature: 4.0°C (39°F)
Dewpoint: 1.0°C (34°F) [RH = 81%]
Pressure (altimeter): 30.38 inches Hg (1029.0 mb)
Winds: from the ENE (70 degrees) at 2 MPH (2 knots; 1.0 m/s)
Visibility: 6 or more miles (10+ km)
Ceiling: ceiling and visibility are OK
Clouds: unknown
Weather: no significant weather observed at this time

METAR text: UKKK 180330Z 07002MPS CAVOK 02/M00 Q1029 R08/70D NOSIG
Conditions at: UKKK (KIEV/ZHYLIANY , UA) observed 0330 UTC 18 April 2019
Temperature: 2.0°C (36°F)
Dewpoint: 0.0°C (32°F) [RH = 87%]
Pressure (altimeter): 30.38 inches Hg (1029.0 mb)
Winds: from the ENE (70 degrees) at 5 MPH (4 knots; 2.1 m/s)
Visibility: 6 or more miles (10+ km)
Ceiling: ceiling and visibility are OK
Clouds: unknown
Weather: no significant weather observed at this time

METAR text: UKKK 180300Z 10001MPS CAVOK 01/M01 Q1028 R08/70D NOSIG
Conditions at: UKKK (KIEV/ZHYLIANY , UA) observed 0300 UTC 18 April 2019
Temperature: 1.0°C (34°F)
Dewpoint: -1.0°C (30°F) [RH = 86%]
Pressure (altimeter): 30.35 inches Hg (1028.0 mb)
Winds: from the E (100 degrees) at 2 MPH (2 knots; 1.0 m/s)
Visibility: 6 or more miles (10+ km)
Ceiling: ceiling and visibility are OK
Clouds: unknown
Weather: no significant weather observed at this time

Forecast for: AMD
Text: TAF AMD UKKK 191323Z 1913/2012 06003G08MPS 9999 BKN020 TX12/1914Z TN03/2003Z
Forecast period: 1300 to 2100 UTC 19 April 2019
Forecast type: FROM: standard forecast or significant change
Winds: from the ENE (60 degrees) at 7 MPH (6 knots; 3.1 m/s)
gusting to 18 MPH (16 knots; 8.2 m/s)
Visibility: 6 or more miles 10+ km)
Ceiling: 2000 feet AGL
Clouds: broken clouds at 2000 feet AGL
Weather: no significant weather forecast for this period
Text: TEMPO 1913/1921 05009G15MPS 2100 -SHRA BKN007 SCT015CB
Forecast period: 1300 to 2100 UTC 19 April 2019
Forecast type: TEMPORARY: The following changes expected for less than half the time period
Winds: from the NE (50 degrees) at 20 MPH (17 knots; 8.7 m/s)
gusting to 33 MPH (29 knots; 14.9 m/s)
Visibility: 1.30 miles (2.09 km)
Ceiling: 700 feet AGL
Clouds: broken clouds at 700 feet AGL
scattered clouds at 1500 feet AGL
Weather: -SHRA  (light rain showers)
Text: PROB40
Forecast period: 1300 to 1800 UTC 19 April 2019
Forecast type: TEMPORARY: The following changes expected for less than half the time period
Winds: variable direction winds at 26 MPH (23 knots; 11.8 m/s)
gusting to 40 MPH (35 knots; 18.0 m/s)
Visibility: 0.93 miles (1.50 km)
Ceiling: 1200 feet AGL
Clouds: scattered clouds at 500 feet AGL
broken clouds at 1200 feet AGL
Weather: TSRA TSGR SQ  (rain associated with thunderstorm(s), hail associated with thunderstorm(s), squal)
Text: TEMPO 1913/1918 VRB12G18MPS 1500 TSRAGR SQ SCT005 BKN012CB
Forecast period: 2100 UTC 19 April 2019 to 0300 UTC 20 April 2019
Forecast type: BECOMING: Conditions expected to become as follows by 2200 UTC 19 April 2019
Winds: from the NNE (20 degrees) at 7 MPH (6 knots; 3.1 m/s)
gusting to 18 MPH (16 knots; 8.2 m/s)
Visibility: 6 or more miles 10+ km)
Ceiling: 2000 feet AGL
Clouds: broken clouds at 2000 feet AGL
Weather: no significant weather forecast for this period
Text: BECMG 1921/1922 02003G08MPS
Forecast period: 0300 to 1200 UTC 20 April 2019
Forecast type: BECOMING: Conditions expected to become as follows by 0500 UTC 20 April 2019
Winds: from the N (350 degrees) at 7 MPH (6 knots; 3.1 m/s)
Visibility: 6 or more miles 10+ km)
Ceiling: 2000 feet AGL
Clouds: broken clouds at 2000 feet AGL
Weather: no significant weather forecast for this period